createdAt,value
2023-04-28T00:01:12.683Z,6.85
2023-04-28T00:03:40.309Z,6.76
2023-04-28T00:06:07.704Z,6.74
2023-04-28T00:08:34.956Z,6.82
2023-04-28T00:11:02.181Z,6.82
2023-04-28T00:13:29.523Z,6.81
2023-04-28T00:15:56.831Z,6.88
2023-04-28T00:18:24.185Z,6.79
2023-04-28T00:20:51.548Z,6.68
2023-04-28T00:23:18.786Z,6.67
2023-04-28T00:25:51.567Z,6.56
2023-04-28T00:28:32.941Z,6.58
2023-04-28T00:31:01.987Z,6.55
2023-04-28T00:33:29.368Z,6.52
2023-04-28T00:36:01.186Z,6.47
2023-04-28T00:38:28.890Z,6.38
2023-04-28T00:40:56.301Z,6.27
2023-04-28T00:43:23.800Z,6.37
2023-04-28T00:45:52.139Z,6.28
2023-04-28T00:48:19.571Z,6.30
2023-04-28T00:50:47.476Z,6.26
2023-04-28T00:53:14.764Z,6.22
2023-04-28T00:55:42.292Z,6.26
2023-04-28T00:58:10.153Z,6.13
2023-04-28T01:00:37.776Z,6.09
2023-04-28T01:03:05.165Z,6.07
2023-04-28T01:05:35.191Z,6.10
2023-04-28T01:08:03.085Z,6.00
2023-04-28T01:10:30.783Z,6.03
2023-04-28T01:13:03.360Z,6.02
2023-04-28T01:15:30.826Z,6.01
2023-04-28T01:17:58.545Z,5.91
2023-04-28T01:20:25.968Z,5.99
2023-04-28T01:22:53.294Z,5.89
2023-04-28T01:25:20.779Z,5.82
2023-04-28T01:27:48.431Z,5.65
2023-04-28T01:30:15.917Z,5.69
2023-04-28T01:32:43.421Z,5.64
2023-04-28T01:35:10.686Z,5.58
2023-04-28T01:37:38.088Z,5.61
2023-04-28T01:40:05.929Z,5.57
2023-04-28T01:42:33.367Z,5.58
2023-04-28T01:45:03.458Z,5.52
2023-04-28T01:47:30.991Z,5.38
2023-04-28T01:49:58.311Z,5.27
2023-04-28T01:52:27.369Z,5.29
2023-04-28T01:54:55.072Z,5.28
2023-04-28T01:57:22.852Z,5.27
2023-04-28T01:59:50.818Z,5.16
2023-04-28T02:02:18.163Z,5.13
2023-04-28T02:04:45.474Z,5.14
2023-04-28T02:07:12.798Z,5.00
2023-04-28T02:09:40.066Z,4.94
2023-04-28T02:12:07.362Z,4.87
2023-04-28T02:14:35.095Z,4.87
2023-04-28T02:17:05.593Z,4.85
2023-04-28T02:19:33.868Z,4.71
2023-04-28T02:22:01.096Z,4.63
2023-04-28T02:24:28.335Z,4.61
2023-04-28T02:26:58.954Z,4.56
2023-04-28T02:29:28.350Z,4.55
2023-04-28T02:31:57.081Z,4.60
2023-04-28T02:34:24.385Z,4.56
2023-04-28T02:36:51.689Z,4.52
2023-04-28T02:39:21.335Z,4.40
2023-04-28T02:41:48.595Z,4.48
2023-04-28T02:44:16.132Z,4.34
2023-04-28T02:46:43.791Z,4.26
2023-04-28T02:49:11.289Z,4.13
2023-04-28T02:51:38.579Z,4.09
2023-04-28T02:54:05.862Z,4.14
2023-04-28T02:56:34.045Z,4.13
2023-04-28T02:59:01.787Z,3.92
2023-04-28T03:01:29.253Z,4.02
2023-04-28T03:03:57.118Z,3.97
2023-04-28T03:06:24.654Z,3.93
2023-04-28T03:08:51.971Z,3.88
2023-04-28T03:11:19.280Z,3.84
2023-04-28T03:13:46.977Z,3.76
2023-04-28T03:16:14.334Z,3.73
2023-04-28T03:18:44.503Z,3.76
2023-04-28T03:21:11.905Z,3.75
2023-04-28T03:23:39.190Z,3.64
2023-04-28T03:26:07.011Z,3.58
2023-04-28T03:28:34.539Z,3.60
2023-04-28T03:31:02.763Z,3.44
2023-04-28T03:33:30.696Z,3.44
2023-04-28T03:35:59.345Z,3.30
2023-04-28T03:38:27.003Z,3.33
2023-04-28T03:40:54.627Z,3.28
2023-04-28T03:43:35.503Z,3.01
2023-04-28T03:46:23.281Z,3.17
2023-04-28T03:48:50.677Z,3.22
2023-04-28T03:51:19.779Z,3.30
2023-04-28T03:53:47.194Z,3.26
2023-04-28T03:56:14.519Z,3.26
2023-04-28T03:58:41.868Z,3.34
2023-04-28T04:01:09.104Z,3.38
2023-04-28T04:03:36.428Z,3.34
2023-04-28T04:06:03.960Z,3.32
2023-04-28T04:08:32.356Z,3.20
2023-04-28T04:11:00.822Z,3.16
2023-04-28T04:13:28.099Z,3.19
2023-04-28T04:15:55.364Z,3.26
2023-04-28T04:18:24.663Z,3.22
2023-04-28T04:21:21.111Z,3.40
2023-04-28T04:23:50.879Z,3.36
2023-04-28T04:26:18.122Z,3.51
2023-04-28T04:28:47.328Z,3.70
2023-04-28T04:31:16.297Z,3.73
2023-04-28T04:33:44.026Z,3.84
2023-04-28T04:36:12.072Z,3.91
2023-04-28T04:38:39.901Z,3.99
2023-04-28T04:41:16.859Z,4.27
2023-04-28T04:43:44.564Z,4.39
2023-04-28T04:46:11.886Z,4.51
2023-04-28T04:48:39.394Z,4.70
2023-04-28T04:51:07.163Z,4.83
2023-04-28T04:53:35.148Z,5.01
2023-04-28T04:56:02.736Z,5.12
2023-04-28T04:58:31.187Z,5.20
2023-04-28T05:01:16.920Z,5.32
2023-04-28T05:03:44.353Z,5.35
2023-04-28T05:06:12.071Z,5.58
2023-04-28T05:08:45.808Z,5.69
2023-04-28T05:11:13.501Z,5.75
2023-04-28T05:13:41.537Z,5.73
2023-04-28T05:16:08.800Z,5.92
2023-04-28T05:18:49.983Z,6.18
2023-04-28T05:21:17.357Z,6.25
2023-04-28T05:23:44.689Z,6.29
2023-04-28T05:26:12.068Z,6.36
2023-04-28T05:28:41.144Z,6.50
2023-04-28T05:31:09.322Z,6.62
2023-04-28T05:33:36.614Z,6.72
2023-04-28T05:36:05.480Z,6.51
2023-04-28T05:38:36.122Z,6.72
2023-04-28T05:41:05.166Z,6.77
2023-04-28T05:43:32.576Z,6.99
2023-04-28T05:46:00.883Z,7.20
2023-04-28T05:48:29.579Z,7.28
2023-04-28T05:50:56.911Z,7.33
2023-04-28T05:53:24.388Z,7.57
2023-04-28T05:55:52.572Z,7.70
2023-04-28T05:58:20.944Z,7.75
2023-04-28T06:00:48.282Z,7.90
2023-04-28T06:03:19.270Z,7.88
2023-04-28T06:05:47.409Z,8.04
2023-04-28T06:08:15.639Z,8.34
2023-04-28T06:10:43.081Z,8.45
2023-04-28T06:13:11.013Z,8.56
2023-04-28T06:15:39.504Z,8.51
2023-04-28T06:18:07.587Z,8.69
2023-04-28T06:20:35.883Z,8.76
2023-04-28T06:23:06.893Z,8.90
2023-04-28T06:25:34.307Z,9.12
2023-04-28T06:28:01.648Z,9.06
2023-04-28T06:30:29.505Z,9.46
2023-04-28T06:32:57.866Z,9.33
2023-04-28T06:35:25.289Z,9.42
2023-04-28T06:37:52.693Z,9.57
2023-04-28T06:40:21.065Z,9.56
2023-04-28T06:42:53.083Z,9.90
2023-04-28T06:45:35.213Z,9.93
2023-04-28T06:48:02.591Z,10.03
2023-04-28T06:50:30.148Z,10.27
2023-04-28T06:52:58.857Z,10.38
2023-04-28T06:55:26.780Z,10.57
2023-04-28T06:57:54.129Z,10.74
2023-04-28T07:00:21.716Z,10.64
2023-04-28T07:02:49.199Z,10.63
2023-04-28T07:05:19.123Z,10.74
2023-04-28T07:07:49.366Z,10.86
2023-04-28T07:10:16.759Z,11.12
2023-04-28T07:12:44.189Z,11.43
2023-04-28T07:15:12.012Z,11.42
2023-04-28T07:17:39.479Z,11.41
2023-04-28T07:20:07.385Z,11.48
2023-04-28T07:22:34.682Z,11.77
2023-04-28T07:25:02.123Z,11.67
2023-04-28T07:27:29.455Z,11.96
2023-04-28T07:29:56.717Z,12.10
2023-04-28T07:32:24.479Z,12.28
2023-04-28T07:34:52.027Z,12.34
2023-04-28T07:37:19.349Z,12.37
2023-04-28T07:39:47.349Z,12.44
2023-04-28T07:42:14.642Z,12.33
2023-04-28T07:44:42.430Z,12.34
2023-04-28T07:47:09.784Z,12.16
2023-04-28T07:49:39.770Z,12.32
2023-04-28T07:52:07.091Z,12.63
2023-04-28T07:54:36.442Z,12.57
2023-04-28T07:57:06.108Z,12.47
2023-04-28T07:59:34.489Z,12.75
2023-04-28T08:02:01.782Z,13.11
2023-04-28T08:04:30.355Z,13.01
2023-04-28T08:06:57.694Z,13.04
2023-04-28T08:09:24.967Z,12.92
2023-04-28T08:11:52.238Z,12.89
2023-04-28T08:14:20.377Z,13.08
2023-04-28T08:16:48.520Z,13.12
2023-04-28T08:19:15.845Z,13.03
2023-04-28T08:21:43.151Z,13.03
2023-04-28T08:24:10.964Z,12.99
2023-04-28T08:26:38.546Z,13.18
2023-04-28T08:29:06.040Z,13.50
2023-04-28T08:31:33.425Z,13.18
2023-04-28T08:34:00.658Z,13.06
2023-04-28T08:36:31.981Z,13.35
2023-04-28T08:39:04.115Z,13.43
2023-04-28T08:41:33.090Z,13.66
2023-04-28T08:44:00.525Z,13.36
2023-04-28T08:46:27.895Z,13.98
2023-04-28T08:48:59.785Z,14.00
2023-04-28T08:51:40.804Z,13.91
2023-04-28T08:56:39.603Z,14.26
2023-04-28T08:59:06.920Z,14.05
2023-04-28T09:01:34.778Z,14.00
2023-04-28T09:04:05.076Z,14.35
2023-04-28T09:06:36.259Z,14.30
2023-04-28T09:09:25.645Z,14.62
2023-04-28T09:11:59.709Z,14.58
2023-04-28T09:14:27.836Z,14.23
2023-04-28T09:16:55.377Z,14.34
2023-04-28T09:19:22.871Z,14.40
2023-04-28T09:21:54.207Z,14.86
2023-04-28T09:24:31.575Z,15.07
2023-04-28T09:27:05.015Z,14.88
2023-04-28T09:29:32.332Z,14.91
2023-04-28T09:32:18.597Z,15.29
2023-04-28T09:34:49.994Z,14.74
2023-04-28T09:37:18.078Z,14.80
2023-04-28T09:39:46.251Z,15.26
2023-04-28T09:42:45.957Z,15.39
2023-04-28T09:45:16.349Z,15.19
2023-04-28T09:47:46.526Z,14.87
2023-04-28T09:50:17.209Z,15.15
2023-04-28T09:52:46.056Z,15.47
2023-04-28T09:55:16.371Z,15.51
2023-04-28T09:57:43.671Z,14.85
2023-04-28T10:00:11.199Z,14.71
2023-04-28T10:05:09.830Z,15.22
2023-04-28T10:07:37.743Z,15.32
2023-04-28T10:10:05.508Z,15.52
2023-04-28T10:12:32.910Z,15.55
2023-04-28T10:15:03.289Z,15.57
2023-04-28T10:17:30.669Z,15.13
2023-04-28T10:19:58.037Z,15.44
2023-04-28T10:22:34.469Z,15.62
2023-04-28T10:25:26.618Z,16.04
2023-04-28T10:27:54.086Z,16.13
2023-04-28T10:30:28.379Z,15.78
2023-04-28T10:33:14.833Z,15.83
2023-04-28T10:35:46.190Z,15.70
2023-04-28T10:38:14.818Z,16.03
2023-04-28T10:40:46.093Z,16.25
2023-04-28T10:43:13.814Z,16.38
2023-04-28T10:45:55.971Z,15.71
2023-04-28T10:48:47.023Z,15.41
2023-04-28T10:51:17.043Z,15.66
2023-04-28T10:53:44.401Z,16.28
2023-04-28T10:56:16.735Z,16.25
2023-04-28T10:58:46.358Z,16.45
2023-04-28T11:01:24.802Z,16.34
2023-04-28T11:03:55.307Z,16.36
2023-04-28T11:06:40.333Z,16.65
2023-04-28T11:09:17.576Z,16.73
2023-04-28T11:12:00.087Z,16.48
2023-04-28T11:14:30.201Z,16.93
2023-04-28T11:17:02.701Z,16.98
2023-04-28T11:19:37.721Z,16.69
2023-04-28T11:22:22.060Z,16.20
2023-04-28T11:24:59.302Z,16.61
2023-04-28T11:27:27.418Z,16.82
2023-04-28T11:29:56.885Z,16.91
2023-04-28T11:32:34.023Z,16.92
2023-04-28T11:35:01.472Z,16.83
2023-04-28T11:37:28.777Z,16.93
2023-04-28T11:39:57.423Z,17.24
2023-04-28T11:42:27.762Z,17.25
2023-04-28T11:44:55.348Z,17.21
2023-04-28T11:47:32.794Z,17.68
2023-04-28T11:50:01.360Z,17.33
2023-04-28T11:52:28.833Z,17.03
2023-04-28T11:55:02.066Z,16.90
2023-04-28T11:57:29.523Z,17.41
2023-04-28T12:00:13.163Z,17.42
2023-04-28T12:02:40.656Z,17.78
2023-04-28T12:05:09.015Z,17.22
2023-04-28T12:07:44.167Z,17.04
2023-04-28T12:10:12.568Z,17.64
2023-04-28T12:12:49.761Z,17.60
2023-04-28T12:15:20.789Z,17.18
2023-04-28T12:17:49.259Z,17.60
2023-04-28T12:20:35.813Z,17.39
2023-04-28T12:23:03.219Z,17.32
2023-04-28T12:25:30.546Z,17.33
2023-04-28T12:28:02.616Z,17.70
2023-04-28T12:30:31.494Z,18.12
2023-04-28T12:32:58.869Z,17.88
2023-04-28T12:35:26.605Z,17.98
2023-04-28T12:37:55.512Z,17.80
2023-04-28T12:40:23.210Z,17.72
2023-04-28T12:42:50.840Z,17.57
2023-04-28T12:45:18.346Z,18.01
2023-04-28T12:47:46.272Z,18.13
2023-04-28T12:50:13.685Z,18.29
2023-04-28T12:52:41.405Z,18.12
2023-04-28T12:55:09.274Z,17.94
2023-04-28T12:57:39.873Z,17.77
2023-04-28T13:00:08.399Z,17.77
2023-04-28T13:02:36.138Z,17.08
2023-04-28T13:05:03.703Z,17.29
2023-04-28T13:07:31.955Z,17.95
2023-04-28T13:09:59.441Z,18.15
2023-04-28T13:12:26.895Z,18.62
2023-04-28T13:14:54.210Z,18.88
2023-04-28T13:17:21.502Z,18.74
2023-04-28T13:19:48.812Z,18.26
2023-04-28T13:22:16.177Z,18.26
2023-04-28T13:24:43.908Z,17.55
2023-04-28T13:27:11.654Z,18.15
2023-04-28T13:29:39.035Z,18.50
2023-04-28T13:32:06.664Z,18.38
2023-04-28T13:34:34.073Z,17.73
2023-04-28T13:37:01.326Z,17.97
2023-04-28T13:39:28.512Z,18.16
2023-04-28T13:41:56.000Z,18.23
2023-04-28T13:44:23.318Z,18.15
2023-04-28T13:46:50.632Z,18.13
2023-04-28T13:49:17.900Z,18.41
2023-04-28T13:51:45.764Z,18.42
2023-04-28T13:54:13.109Z,18.98
2023-04-28T13:56:40.504Z,19.32
2023-04-28T13:59:07.821Z,18.92
2023-04-28T14:01:35.179Z,19.35
2023-04-28T14:04:03.335Z,19.05
2023-04-28T14:06:31.941Z,19.22
2023-04-28T14:09:01.144Z,19.75
2023-04-28T14:11:28.529Z,20.18
2023-04-28T14:13:55.905Z,20.53
2023-04-28T14:16:23.233Z,21.51
2023-04-28T14:18:50.730Z,21.47
2023-04-28T14:21:18.045Z,20.83
2023-04-28T14:23:45.285Z,21.12
2023-04-28T14:26:12.558Z,21.54
2023-04-28T14:28:39.876Z,22.44
2023-04-28T14:31:08.976Z,21.91
2023-04-28T14:33:36.872Z,22.00
2023-04-28T14:36:05.086Z,22.32
2023-04-28T14:38:32.493Z,22.67
2023-04-28T14:40:59.732Z,22.30
2023-04-28T14:43:26.972Z,22.93
2023-04-28T14:45:54.485Z,22.73
2023-04-28T14:48:21.766Z,22.01
2023-04-28T14:50:49.054Z,22.06
2023-04-28T14:53:16.244Z,22.35
2023-04-28T14:55:43.710Z,23.22
2023-04-28T14:58:11.242Z,22.02
2023-04-28T15:00:38.556Z,20.81
2023-04-28T15:03:06.040Z,20.22
2023-04-28T15:05:33.544Z,20.05
2023-04-28T15:08:00.971Z,20.49
2023-04-28T15:10:32.596Z,22.02
2023-04-28T15:13:00.328Z,21.59
2023-04-28T15:15:27.595Z,20.99
2023-04-28T15:18:00.646Z,21.01
2023-04-28T15:20:30.347Z,21.45
2023-04-28T15:22:57.887Z,20.51
2023-04-28T15:25:25.497Z,19.87
2023-04-28T15:27:52.740Z,18.84
2023-04-28T15:30:20.019Z,18.01
2023-04-28T15:32:48.981Z,17.61
2023-04-28T15:35:16.634Z,17.29
2023-04-28T15:37:44.962Z,18.09
2023-04-28T15:40:16.594Z,18.86
2023-04-28T15:42:48.938Z,19.08
2023-04-28T15:45:16.509Z,19.27
2023-04-28T15:47:43.849Z,18.30
2023-04-28T15:50:11.266Z,18.31
2023-04-28T15:52:46.075Z,17.63
2023-04-28T15:55:14.280Z,17.64
2023-04-28T15:57:41.827Z,17.63
2023-04-28T16:00:10.072Z,17.28
2023-04-28T16:02:37.967Z,17.24
2023-04-28T16:05:05.549Z,17.10
2023-04-28T16:07:38.143Z,16.81
2023-04-28T16:10:07.763Z,16.43
2023-04-28T16:12:36.271Z,16.19
2023-04-28T16:15:04.144Z,16.00
2023-04-28T16:17:31.569Z,15.80
2023-04-28T16:19:58.792Z,15.66
2023-04-28T16:22:26.074Z,15.54
2023-04-28T16:24:53.859Z,15.77
2023-04-28T16:27:21.457Z,15.56
2023-04-28T16:29:48.763Z,15.31
2023-04-28T16:32:16.396Z,15.29
2023-04-28T16:34:43.864Z,15.14
2023-04-28T16:37:11.696Z,15.07
2023-04-28T16:39:39.219Z,15.00
2023-04-28T16:42:06.661Z,14.98
2023-04-28T16:44:34.694Z,14.97
2023-04-28T16:47:01.997Z,14.99
2023-04-28T16:49:29.405Z,14.86
2023-04-28T16:51:56.697Z,14.74
2023-04-28T16:54:25.402Z,14.76
2023-04-28T16:56:52.640Z,14.64
2023-04-28T16:59:19.985Z,14.73
2023-04-28T17:01:47.421Z,14.64
2023-04-28T17:04:15.032Z,14.54
2023-04-28T17:06:42.503Z,14.46
2023-04-28T17:09:09.978Z,14.40
2023-04-28T17:11:40.360Z,14.35
2023-04-28T17:14:07.681Z,14.21
2023-04-28T17:16:34.902Z,14.09
2023-04-28T17:19:02.541Z,14.01
2023-04-28T17:21:29.907Z,13.93
2023-04-28T17:23:58.145Z,13.76
2023-04-28T17:26:28.562Z,13.89
2023-04-28T17:28:56.022Z,13.76
2023-04-28T17:31:23.350Z,13.68
2023-04-28T17:33:51.448Z,13.65
2023-04-28T17:36:19.605Z,13.57
2023-04-28T17:38:46.877Z,13.58
2023-04-28T17:41:15.206Z,13.57
2023-04-28T17:43:42.783Z,13.40
2023-04-28T17:46:12.027Z,13.31
2023-04-28T17:48:39.349Z,13.23
2023-04-28T17:51:06.643Z,13.30
2023-04-28T17:53:33.921Z,13.30
2023-04-28T17:56:02.129Z,13.27
2023-04-28T17:58:30.879Z,13.14
2023-04-28T18:01:04.557Z,13.12
2023-04-28T18:03:32.478Z,13.06
2023-04-28T18:05:59.856Z,13.16
2023-04-28T18:08:27.289Z,13.04
2023-04-28T18:10:54.754Z,12.71
2023-04-28T18:13:22.104Z,12.74
2023-04-28T18:15:49.742Z,12.71
2023-04-28T18:18:17.047Z,12.76
2023-04-28T18:20:44.412Z,12.59
2023-04-28T18:23:12.070Z,12.56
2023-04-28T18:25:39.610Z,12.50
2023-04-28T18:28:08.246Z,12.40
2023-04-28T18:30:38.217Z,12.42
2023-04-28T18:33:08.720Z,12.45
2023-04-28T18:35:37.022Z,12.36
2023-04-28T18:38:05.149Z,12.32
2023-04-28T18:40:38.621Z,12.38
2023-04-28T18:43:06.500Z,12.46
2023-04-28T18:45:35.438Z,12.36
2023-04-28T18:48:03.995Z,12.30
2023-04-28T18:50:32.340Z,12.39
2023-04-28T18:53:00.159Z,12.49
2023-04-28T18:55:27.451Z,12.49
2023-04-28T18:57:54.813Z,12.43
2023-04-28T19:00:22.836Z,12.55
2023-04-28T19:02:50.398Z,12.50
2023-04-28T19:05:18.131Z,12.41
2023-04-28T19:07:45.710Z,12.42
2023-04-28T19:10:13.106Z,12.37
2023-04-28T19:12:40.359Z,12.39
2023-04-28T19:15:07.904Z,12.31
2023-04-28T19:17:35.236Z,12.32
2023-04-28T19:20:04.059Z,12.18
2023-04-28T19:22:41.476Z,12.02
2023-04-28T19:25:09.054Z,11.97
2023-04-28T19:27:37.530Z,11.92
2023-04-28T19:30:06.232Z,11.85
2023-04-28T19:32:33.648Z,11.83
2023-04-28T19:35:02.146Z,11.77
2023-04-28T19:37:29.837Z,11.80
2023-04-28T19:39:57.164Z,11.76
2023-04-28T19:42:24.602Z,11.81
2023-04-28T19:44:56.149Z,11.83
2023-04-28T19:47:24.193Z,11.80
2023-04-28T19:49:51.994Z,11.89
2023-04-28T19:52:20.891Z,11.87
2023-04-28T19:54:48.767Z,11.96
2023-04-28T19:57:16.377Z,12.10
2023-04-28T19:59:43.736Z,12.20
2023-04-28T20:02:11.042Z,12.28
2023-04-28T20:04:38.718Z,12.34
2023-04-28T20:07:06.349Z,12.39
2023-04-28T20:09:34.938Z,12.50
2023-04-28T20:12:04.305Z,12.49
2023-04-28T20:14:32.186Z,12.52
2023-04-28T20:16:59.456Z,12.57
2023-04-28T20:19:26.766Z,12.51
2023-04-28T20:21:54.553Z,12.59
2023-04-28T20:24:21.783Z,12.58
2023-04-28T20:26:50.140Z,12.63
2023-04-28T20:29:17.885Z,12.62
2023-04-28T20:31:45.203Z,12.61
2023-04-28T20:34:13.892Z,12.63
2023-04-28T20:36:42.828Z,12.66
2023-04-28T20:39:11.822Z,12.71
2023-04-28T20:41:40.996Z,12.68
2023-04-28T20:44:08.627Z,12.70
2023-04-28T20:46:36.108Z,12.65
2023-04-28T20:49:04.496Z,12.61
2023-04-28T20:51:36.122Z,12.56
2023-04-28T20:54:04.503Z,12.62
2023-04-28T20:56:31.797Z,12.58
2023-04-28T20:58:59.106Z,12.60
2023-04-28T21:01:26.531Z,12.62
2023-04-28T21:03:53.904Z,12.54
2023-04-28T21:06:21.372Z,12.49
2023-04-28T21:08:48.616Z,12.35
2023-04-28T21:11:16.423Z,12.35
2023-04-28T21:13:44.002Z,12.20
2023-04-28T21:16:17.622Z,11.96
2023-04-28T21:18:47.226Z,11.96
2023-04-28T21:21:14.717Z,11.97
2023-04-28T21:23:43.019Z,11.98
2023-04-28T21:26:10.381Z,12.00
2023-04-28T21:28:39.896Z,11.97
2023-04-28T21:31:07.376Z,11.90
2023-04-28T21:33:34.616Z,11.94
2023-04-28T21:36:08.096Z,11.91
2023-04-28T21:38:39.074Z,11.89
2023-04-28T21:41:07.775Z,11.90
2023-04-28T21:43:35.197Z,11.89
2023-04-28T21:46:02.783Z,11.88
2023-04-28T21:48:30.042Z,11.89
2023-04-28T21:50:57.969Z,11.90
2023-04-28T21:53:25.256Z,11.90
2023-04-28T21:55:52.547Z,11.90
2023-04-28T21:58:20.273Z,11.85
2023-04-28T22:00:47.606Z,11.86
2023-04-28T22:03:15.458Z,11.83
2023-04-28T22:05:46.584Z,11.88
2023-04-28T22:08:14.098Z,11.87
2023-04-28T22:10:41.757Z,11.88
2023-04-28T22:13:09.121Z,11.88
2023-04-28T22:15:36.716Z,11.86
2023-04-28T22:18:04.147Z,11.82
2023-04-28T22:20:32.530Z,11.84
2023-04-28T22:23:00.230Z,11.81
2023-04-28T22:25:27.531Z,11.84
2023-04-28T22:27:54.805Z,11.77
2023-04-28T22:30:24.329Z,11.82
2023-04-28T22:32:53.219Z,11.89
2023-04-28T22:35:20.533Z,11.90
2023-04-28T22:37:48.022Z,11.89
2023-04-28T22:40:15.445Z,11.89
2023-04-28T22:42:44.117Z,11.96
2023-04-28T22:45:11.921Z,11.98
2023-04-28T22:47:40.800Z,11.95
2023-04-28T22:50:09.569Z,12.00
2023-04-28T22:52:37.163Z,12.06
2023-04-28T22:55:04.875Z,12.01
2023-04-28T22:57:32.157Z,12.00
2023-04-28T22:59:59.495Z,11.97
2023-04-28T23:02:26.945Z,12.01
2023-04-28T23:04:54.433Z,12.04
2023-04-28T23:07:21.736Z,11.97
2023-04-28T23:09:49.292Z,11.90
2023-04-28T23:12:16.898Z,11.88
2023-04-28T23:14:44.140Z,11.82
2023-04-28T23:17:11.725Z,11.86
2023-04-28T23:19:39.360Z,11.80
2023-04-28T23:22:07.580Z,11.74
2023-04-28T23:24:37.242Z,11.61
2023-04-28T23:27:05.019Z,11.51
2023-04-28T23:29:32.655Z,11.44
2023-04-28T23:32:00.026Z,11.34
2023-04-28T23:34:27.347Z,11.28
2023-04-28T23:36:54.667Z,11.20
2023-04-28T23:39:21.899Z,11.18
2023-04-28T23:41:49.116Z,11.11
2023-04-28T23:44:17.146Z,11.09
2023-04-28T23:46:44.379Z,11.05
2023-04-28T23:49:11.784Z,11.09
2023-04-28T23:51:40.951Z,11.16
2023-04-28T23:54:09.592Z,11.03
2023-04-28T23:56:36.940Z,10.94
2023-04-28T23:59:04.932Z,10.90
